Time;durP1;ratioP1;P1;durP2;ratioP2;P2;SDS_P1;SDS_P2;PMS_P1;PMS_P2;Temp;Humidity;BMP_temperature;BMP_pressure;BME280_temperature;BME280_humidity;BME280_pressure;Samples;Min_cycle;Max_cycle;Signal;HPM_P1;HPM_P2
2023/09/30 00:00:59;;;;;;;7.07;4.17;;;16.50;15.20;;;;;;5052092;28;20428;-71
2023/09/30 00:03:24;;;;;;;12.10;5.20;;;16.60;14.80;;;;;;5034201;28;20181;-71
2023/09/30 00:05:50;;;;;;;9.10;4.77;;;16.50;15.20;;;;;;5033897;28;20175;-70
2023/09/30 00:08:16;;;;;;;9.30;4.87;;;16.60;14.40;;;;;;5034143;28;20216;-69
2023/09/30 00:10:42;;;;;;;8.30;4.60;;;16.50;15.30;;;;;;5051881;28;20449;-71
2023/09/30 00:13:07;;;;;;;10.20;5.73;;;16.40;16.20;;;;;;5051981;28;20171;-71
2023/09/30 00:15:33;;;;;;;8.60;5.40;;;16.30;15.80;;;;;;5052115;28;20177;-71
2023/09/30 00:17:59;;;;;;;11.77;4.83;;;16.30;16.60;;;;;;5034116;28;20265;-72
2023/09/30 00:20:25;;;;;;;10.07;4.87;;;16.10;17.20;;;;;;5051746;28;20421;-72
2023/09/30 00:22:50;;;;;;;11.13;4.90;;;16.20;17.30;;;;;;5034029;28;20912;-71
2023/09/30 00:25:16;;;;;;;7.57;4.70;;;16.10;17.10;;;;;;5033754;28;20211;-71
2023/09/30 00:27:42;;;;;;;9.57;4.80;;;16.10;17.40;;;;;;5051541;28;20214;-72
2023/09/30 00:30:08;;;;;;;10.43;5.33;;;16.10;18.30;;;;;;5033871;28;20207;-71
2023/09/30 00:32:33;;;;;;;10.73;4.40;;;15.90;18.90;;;;;;5052225;28;20170;-71
2023/09/30 00:35:01;;;;;;;8.17;4.80;;;15.90;19.40;;;;;;5051745;28;20926;-71
2023/09/30 00:37:27;;;;;;;13.10;6.50;;;15.80;20.20;;;;;;5051830;28;20186;-71
2023/09/30 00:39:53;;;;;;;10.80;5.37;;;15.70;21.00;;;;;;5051543;28;20417;-71
2023/09/30 00:42:20;;;;;;;10.03;5.27;;;15.70;21.30;;;;;;5051691;28;20417;-71
2023/09/30 00:44:46;;;;;;;11.10;4.53;;;15.60;22.20;;;;;;5051504;28;20417;-71
2023/09/30 00:47:14;;;;;;;12.33;4.87;;;15.60;22.20;;;;;;5051458;28;20468;-71
2023/09/30 00:49:43;;;;;;;9.20;5.10;;;15.50;22.20;;;;;;5051496;28;20409;-71
2023/09/30 00:52:09;;;;;;;8.70;4.90;;;15.50;22.70;;;;;;5033851;28;20441;-71
2023/09/30 00:54:35;;;;;;;5.73;4.00;;;15.40;23.20;;;;;;5033545;28;20727;-71
2023/09/30 00:57:01;;;;;;;8.30;5.77;;;15.30;24.30;;;;;;5051674;28;20413;-72
2023/09/30 00:59:28;;;;;;;6.20;3.90;;;15.20;24.40;;;;;;5051539;28;20546;-69
2023/09/30 01:01:58;;;;;;;8.10;4.80;;;15.20;24.90;;;;;;5033335;28;20441;-71
2023/09/30 01:04:26;;;;;;;10.60;5.80;;;15.10;25.30;;;;;;5051220;28;20425;-71
2023/09/30 01:06:51;;;;;;;11.40;5.13;;;15.00;25.80;;;;;;5033519;28;20495;-71
2023/09/30 01:09:17;;;;;;;9.93;5.23;;;15.00;26.60;;;;;;5051435;28;20421;-71
2023/09/30 01:11:44;;;;;;;7.83;3.80;;;14.90;26.00;;;;;;5033348;28;20206;-71
2023/09/30 01:14:29;;;;;;;9.83;5.37;;;14.90;26.40;;;;;;5051089;28;20277;-71
2023/09/30 01:16:55;;;;;;;8.00;4.47;;;14.80;26.40;;;;;;5051267;28;20759;-71
2023/09/30 01:19:24;;;;;;;9.13;5.00;;;14.80;26.30;;;;;;5051326;28;20416;-71
2023/09/30 01:21:50;;;;;;;7.43;3.70;;;14.70;26.00;;;;;;5051682;28;20463;-71
2023/09/30 01:24:15;;;;;;;7.53;4.80;;;14.70;26.70;;;;;;5051631;28;20432;-71
2023/09/30 01:26:44;;;;;;;10.23;4.20;;;14.60;27.70;;;;;;5051209;28;20457;-72
2023/09/30 01:29:12;;;;;;;6.60;4.13;;;14.60;28.80;;;;;;5033398;28;20277;-69
2023/09/30 01:31:38;;;;;;;7.67;4.67;;;14.50;29.50;;;;;;5033350;28;20436;-70
2023/09/30 01:34:04;;;;;;;7.50;4.37;;;14.40;30.00;;;;;;5051018;28;20417;-70
2023/09/30 01:36:30;;;;;;;9.43;5.13;;;14.40;30.80;;;;;;5033519;28;20423;-70
2023/09/30 01:38:55;;;;;;;12.00;5.30;;;14.30;31.30;;;;;;5035380;28;20789;-72
2023/09/30 01:41:21;;;;;;;9.77;4.73;;;14.30;31.90;;;;;;5037134;28;20190;-71
2023/09/30 01:43:47;;;;;;;7.57;4.33;;;14.30;31.70;;;;;;5054668;28;20251;-71
2023/09/30 01:46:12;;;;;;;7.40;4.30;;;14.20;32.60;;;;;;5054833;28;20265;-71
2023/09/30 01:48:38;;;;;;;10.63;6.90;;;14.20;33.50;;;;;;5054984;28;20656;-71
2023/09/30 01:51:04;;;;;;;8.87;4.97;;;14.20;33.30;;;;;;5054654;28;20199;-70
2023/09/30 01:53:29;;;;;;;7.67;4.70;;;14.30;33.20;;;;;;5054552;28;20181;-72
2023/09/30 01:55:55;;;;;;;11.87;5.70;;;14.20;32.80;;;;;;5054738;28;20171;-71
2023/09/30 01:58:20;;;;;;;8.90;5.10;;;14.20;32.80;;;;;;5036693;28;20193;-71
2023/09/30 02:00:46;;;;;;;8.33;5.57;;;14.30;32.90;;;;;;5036808;28;20300;-71
2023/09/30 02:03:12;;;;;;;8.70;4.13;;;14.30;32.90;;;;;;5054584;28;20178;-71
2023/09/30 02:05:39;;;;;;;7.40;4.37;;;14.30;33.00;;;;;;5054480;28;20703;-71
2023/09/30 02:08:05;;;;;;;10.80;4.50;;;14.40;32.10;;;;;;5036470;28;20216;-71
2023/09/30 02:10:35;;;;;;;9.10;4.73;;;14.40;32.00;;;;;;5054463;28;20525;-69
2023/09/30 02:13:01;;;;;;;7.43;4.77;;;14.50;30.90;;;;;;5054314;28;20417;-70
2023/09/30 02:15:26;;;;;;;9.20;5.10;;;14.60;29.90;;;;;;5054082;28;20462;-70
2023/09/30 02:17:52;;;;;;;6.77;5.03;;;14.60;29.90;;;;;;5054540;28;20439;-68
2023/09/30 02:20:25;;;;;;;10.40;4.70;;;14.70;29.90;;;;;;5054208;28;20680;-68
2023/09/30 02:22:52;;;;;;;5.00;3.13;;;14.70;29.00;;;;;;5054281;28;20209;-69
2023/09/30 02:25:18;;;;;;;11.40;4.63;;;14.80;28.70;;;;;;5053917;28;20927;-69
2023/09/30 02:27:45;;;;;;;6.70;4.90;;;14.80;27.70;;;;;;5054038;28;20564;-69
2023/09/30 02:30:13;;;;;;;9.00;4.83;;;14.90;26.70;;;;;;5053982;28;20516;-72
2023/09/30 02:32:40;;;;;;;12.80;5.13;;;14.90;26.50;;;;;;5054000;28;20440;-69
2023/09/30 02:35:07;;;;;;;9.10;6.17;;;14.90;25.90;;;;;;5053842;28;20420;-69
2023/09/30 02:37:35;;;;;;;9.00;4.90;;;14.90;26.00;;;;;;5053904;28;20444;-68
2023/09/30 02:40:09;;;;;;;10.07;5.10;;;14.70;27.50;;;;;;5053764;28;20508;-71
2023/09/30 02:42:38;;;;;;;9.23;5.03;;;14.70;28.20;;;;;;5054041;28;20470;-68
2023/09/30 02:45:05;;;;;;;13.03;4.57;;;14.70;28.30;;;;;;5053526;28;20501;-69
2023/09/30 02:47:31;;;;;;;6.80;3.40;;;14.70;28.40;;;;;;5053700;28;20465;-71
2023/09/30 02:49:58;;;;;;;9.00;4.53;;;14.70;28.60;;;;;;5053286;28;20413;-71
2023/09/30 02:52:27;;;;;;;6.77;4.67;;;14.70;28.40;;;;;;5053567;28;20417;-69
2023/09/30 02:54:52;;;;;;;7.53;3.77;;;14.70;29.20;;;;;;5053362;28;20409;-70
2023/09/30 02:57:19;;;;;;;12.97;5.20;;;14.70;29.10;;;;;;5053610;28;20813;-68
2023/09/30 02:59:44;;;;;;;8.13;5.13;;;14.90;28.90;;;;;;5053457;28;20171;-69
2023/09/30 03:02:11;;;;;;;7.53;4.20;;;15.00;27.60;;;;;;5053484;28;20417;-69
2023/09/30 03:04:37;;;;;;;10.67;5.00;;;15.00;27.40;;;;;;5053243;28;20189;-69
2023/09/30 03:07:02;;;;;;;9.57;4.03;;;15.00;26.90;;;;;;5053276;28;20825;-69
2023/09/30 03:09:28;;;;;;;10.53;4.67;;;15.00;27.30;;;;;;5053323;28;20183;-69
2023/09/30 03:11:56;;;;;;;11.87;5.67;;;15.00;27.00;;;;;;5053119;28;20686;-70
2023/09/30 03:14:22;;;;;;;5.87;3.90;;;15.10;27.00;;;;;;5053054;28;20166;-72
2023/09/30 03:16:48;;;;;;;6.70;4.43;;;15.20;26.20;;;;;;5053172;28;20420;-69
2023/09/30 03:19:16;;;;;;;12.30;4.63;;;15.20;26.70;;;;;;5052982;28;20409;-69
2023/09/30 03:21:42;;;;;;;9.23;5.10;;;15.20;26.80;;;;;;5053268;28;20985;-70
2023/09/30 03:24:08;;;;;;;7.50;4.70;;;15.20;26.20;;;;;;5052829;28;20421;-71
2023/09/30 03:26:34;;;;;;;9.53;4.07;;;15.20;26.20;;;;;;5052886;28;20555;-72
2023/09/30 03:28:59;;;;;;;8.60;3.60;;;15.20;25.20;;;;;;5053043;28;20517;-69
2023/09/30 03:31:25;;;;;;;8.67;3.43;;;15.00;26.10;;;;;;5052819;28;20753;-69
2023/09/30 03:33:53;;;;;;;8.40;5.17;;;14.90;27.00;;;;;;5052647;28;20261;-68
2023/09/30 03:36:20;;;;;;;8.27;4.27;;;14.70;28.30;;;;;;5035400;28;20194;-69
2023/09/30 03:38:46;;;;;;;5.90;3.50;;;14.70;27.90;;;;;;5034968;28;20941;-71
2023/09/30 03:41:13;;;;;;;6.70;4.50;;;14.70;28.10;;;;;;5052693;28;20459;-69
2023/09/30 03:43:41;;;;;;;7.87;4.30;;;14.60;28.70;;;;;;5052509;28;20262;-69
2023/09/30 03:46:07;;;;;;;10.63;4.83;;;14.60;29.70;;;;;;5052530;28;20421;-69
2023/09/30 03:48:38;;;;;;;5.80;3.97;;;14.60;28.90;;;;;;5052608;28;20444;-69
2023/09/30 03:51:14;;;;;;;7.50;3.93;;;14.50;29.80;;;;;;5052770;28;20523;-70
2023/09/30 03:53:41;;;;;;;8.10;3.87;;;14.50;31.30;;;;;;5052680;28;20859;-70
2023/09/30 03:56:07;;;;;;;5.50;3.10;;;14.50;32.90;;;;;;5052559;28;20487;-68
2023/09/30 03:58:32;;;;;;;9.60;3.73;;;14.40;32.10;;;;;;5052461;28;20423;-70
2023/09/30 04:01:00;;;;;;;11.40;5.43;;;14.40;33.90;;;;;;5051689;28;20202;-72
2023/09/30 04:03:27;;;;;;;13.90;4.80;;;14.30;34.80;;;;;;5052289;28;20174;-68
2023/09/30 04:05:53;;;;;;;11.60;7.27;;;14.20;34.70;;;;;;5052266;28;20416;-69
2023/09/30 04:08:19;;;;;;;14.73;5.77;;;14.20;34.70;;;;;;5052173;28;20978;-70
2023/09/30 04:10:44;;;;;;;8.10;4.90;;;14.10;36.30;;;;;;5052048;28;20636;-70
2023/09/30 04:13:11;;;;;;;9.20;3.90;;;14.10;36.20;;;;;;5052504;28;20449;-69
2023/09/30 04:15:37;;;;;;;8.13;3.80;;;14.10;36.70;;;;;;5051995;28;20188;-71
2023/09/30 04:18:05;;;;;;;7.00;4.37;;;14.10;35.70;;;;;;5052074;28;20429;-71
2023/09/30 04:20:31;;;;;;;5.07;3.50;;;14.00;35.90;;;;;;5051875;28;20448;-71
2023/09/30 04:22:57;;;;;;;7.90;4.60;;;13.90;37.60;;;;;;5052037;28;20770;-68
2023/09/30 04:25:26;;;;;;;11.70;5.20;;;13.90;37.50;;;;;;5033970;28;20809;-72
2023/09/30 04:27:52;;;;;;;7.90;4.17;;;13.80;38.20;;;;;;5051899;28;20495;-70
2023/09/30 04:30:18;;;;;;;9.20;4.20;;;13.80;38.10;;;;;;5051777;28;20520;-69
2023/09/30 04:32:43;;;;;;;8.77;4.33;;;13.90;38.70;;;;;;5033977;28;20444;-69
2023/09/30 04:35:10;;;;;;;7.80;3.63;;;13.90;39.40;;;;;;5051730;28;20174;-70
2023/09/30 04:37:36;;;;;;;7.93;4.93;;;14.00;37.60;;;;;;5051765;28;20181;-69
2023/09/30 04:40:07;;;;;;;6.47;3.10;;;14.10;37.60;;;;;;5052048;28;20420;-69
2023/09/30 04:42:36;;;;;;;7.63;3.37;;;14.10;38.10;;;;;;5051709;28;20421;-71
2023/09/30 04:45:07;;;;;;;11.53;4.23;;;14.10;38.30;;;;;;5051542;28;20431;-69
2023/09/30 04:47:33;;;;;;;6.73;3.70;;;14.20;37.80;;;;;;5033728;28;20832;-68
2023/09/30 04:49:58;;;;;;;9.07;5.63;;;14.20;37.40;;;;;;5051688;28;20409;-69
2023/09/30 04:52:27;;;;;;;7.80;4.57;;;14.20;37.40;;;;;;5051710;28;20463;-69
2023/09/30 04:54:53;;;;;;;6.70;4.47;;;14.30;36.90;;;;;;5051950;28;20795;-69
2023/09/30 04:57:20;;;;;;;13.40;4.60;;;14.30;35.80;;;;;;5051581;28;20511;-69
2023/09/30 04:59:46;;;;;;;7.93;4.60;;;14.30;36.30;;;;;;5051450;28;20421;-70
2023/09/30 05:02:14;;;;;;;9.83;4.00;;;14.40;34.90;;;;;;5051875;28;20431;-69
2023/09/30 05:04:40;;;;;;;10.97;4.20;;;14.40;34.30;;;;;;5051418;28;20474;-69
2023/09/30 05:07:06;;;;;;;6.17;4.20;;;14.30;34.80;;;;;;5033517;28;20476;-69
2023/09/30 05:09:31;;;;;;;9.67;4.53;;;14.20;34.70;;;;;;5051488;28;20190;-69
2023/09/30 05:11:57;;;;;;;8.50;3.83;;;14.30;36.40;;;;;;5051828;28;20724;-69
2023/09/30 05:14:22;;;;;;;8.80;5.00;;;14.50;34.50;;;;;;5037431;28;20664;-69
2023/09/30 05:16:48;;;;;;;6.37;3.50;;;14.50;33.70;;;;;;5055475;28;20652;-69
2023/09/30 05:19:13;;;;;;;6.47;4.43;;;14.50;35.00;;;;;;5055515;28;20181;-71
2023/09/30 05:21:39;;;;;;;10.53;4.63;;;14.60;34.60;;;;;;5055282;28;20616;-69
2023/09/30 05:24:05;;;;;;;8.40;5.30;;;14.60;33.70;;;;;;5055665;28;20265;-68
2023/09/30 05:26:31;;;;;;;9.63;4.97;;;14.60;33.60;;;;;;5055313;28;20210;-69
2023/09/30 05:28:57;;;;;;;6.93;4.60;;;14.80;32.40;;;;;;5055230;28;20413;-69
2023/09/30 05:31:22;;;;;;;6.83;4.00;;;14.80;32.00;;;;;;5055177;28;20425;-69
2023/09/30 05:33:48;;;;;;;13.33;7.33;;;14.80;31.90;;;;;;5055074;28;20178;-69
2023/09/30 05:36:14;;;;;;;10.87;5.57;;;14.90;31.60;;;;;;5055227;28;20193;-72
2023/09/30 05:38:39;;;;;;;10.00;5.90;;;14.90;31.00;;;;;;5055251;28;20296;-69
2023/09/30 05:41:06;;;;;;;11.20;5.23;;;14.90;30.00;;;;;;5054988;28;20191;-69
2023/09/30 05:43:32;;;;;;;9.40;4.87;;;15.00;30.10;;;;;;5054770;28;20413;-70
2023/09/30 05:45:58;;;;;;;6.33;4.90;;;15.00;29.50;;;;;;5054991;28;20413;-70
2023/09/30 05:48:24;;;;;;;8.80;4.63;;;14.80;30.00;;;;;;5055059;28;20217;-69
2023/09/30 05:50:49;;;;;;;8.10;4.70;;;14.90;30.60;;;;;;5054701;28;20840;-69
2023/09/30 05:53:15;;;;;;;7.60;4.70;;;14.90;29.40;;;;;;5054765;28;20592;-69
2023/09/30 05:55:45;;;;;;;8.10;4.80;;;15.00;29.50;;;;;;5054988;28;20181;-68
2023/09/30 05:58:13;;;;;;;10.40;4.80;;;15.10;29.70;;;;;;5055086;28;20242;-69
2023/09/30 06:00:41;;;;;;;11.03;5.80;;;15.20;28.40;;;;;;5054567;28;20523;-71
2023/09/30 06:03:07;;;;;;;8.40;5.53;;;15.20;27.50;;;;;;5054963;28;20890;-69
2023/09/30 06:05:33;;;;;;;7.50;5.70;;;15.20;27.50;;;;;;5054473;28;20441;-71
2023/09/30 06:08:04;;;;;;;8.90;5.83;;;15.20;26.20;;;;;;5054562;28;20198;-70
2023/09/30 06:10:30;;;;;;;6.60;4.43;;;15.20;26.20;;;;;;5054179;28;20955;-69
2023/09/30 06:12:57;;;;;;;7.83;4.87;;;15.30;26.30;;;;;;5054711;28;20916;-69
2023/09/30 06:15:25;;;;;;;7.63;4.90;;;15.30;26.20;;;;;;5054231;28;20412;-68
2023/09/30 06:17:52;;;;;;;7.70;4.90;;;15.40;26.30;;;;;;5036441;28;20470;-69
2023/09/30 06:20:19;;;;;;;14.27;5.40;;;15.40;26.30;;;;;;5054095;28;20523;-69
2023/09/30 06:22:45;;;;;;;6.53;5.00;;;15.40;26.00;;;;;;5054660;28;20840;-70
2023/09/30 06:25:12;;;;;;;9.23;5.50;;;15.50;25.90;;;;;;5053192;28;20433;-70
2023/09/30 06:27:38;;;;;;;7.90;4.70;;;15.50;25.40;;;;;;5036836;28;20925;-69
2023/09/30 06:30:05;;;;;;;11.10;4.87;;;15.70;24.30;;;;;;5054059;28;20500;-69
2023/09/30 06:32:30;;;;;;;8.17;5.30;;;15.60;24.30;;;;;;5054138;28;20544;-69
2023/09/30 06:34:56;;;;;;;8.67;4.40;;;15.50;25.50;;;;;;5035891;28;20424;-69
2023/09/30 06:37:21;;;;;;;8.40;4.90;;;15.60;25.60;;;;;;5053912;28;20618;-69
2023/09/30 06:39:48;;;;;;;9.10;5.20;;;15.80;24.60;;;;;;5053866;28;20665;-71
2023/09/30 06:42:14;;;;;;;14.20;6.43;;;15.90;23.50;;;;;;5054230;28;20182;-70
2023/09/30 06:44:39;;;;;;;10.97;4.83;;;16.00;22.70;;;;;;5053681;28;20409;-69
2023/09/30 06:47:05;;;;;;;10.70;4.47;;;16.20;22.20;;;;;;5053731;28;20202;-69
2023/09/30 06:49:34;;;;;;;13.37;5.03;;;16.40;21.80;;;;;;5053817;28;20414;-69
2023/09/30 06:51:59;;;;;;;8.13;5.30;;;16.60;19.70;;;;;;5035683;28;20433;-71
2023/09/30 06:54:25;;;;;;;11.67;4.87;;;16.80;18.10;;;;;;5053450;28;20417;-69
2023/09/30 06:56:50;;;;;;;9.83;5.13;;;17.10;16.40;;;;;;5053663;28;20179;-69
2023/09/30 06:59:16;;;;;;;8.80;5.47;;;17.30;14.70;;;;;;5053688;28;20600;-69
2023/09/30 07:01:41;;;;;;;10.73;5.03;;;17.50;14.10;;;;;;5053472;28;20297;-71
2023/09/30 07:04:07;;;;;;;7.13;4.10;;;17.60;12.40;;;;;;5035445;28;20268;-69
2023/09/30 07:06:33;;;;;;;7.70;4.60;;;17.80;11.90;;;;;;5053372;28;20277;-69
2023/09/30 07:08:58;;;;;;;7.77;4.80;;;18.00;10.70;;;;;;5053340;28;20175;-71
2023/09/30 07:11:29;;;;;;;11.20;4.93;;;18.20;8.60;;;;;;5053163;28;20307;-69
2023/09/30 07:13:54;;;;;;;9.97;5.30;;;18.10;9.10;;;;;;5053102;28;20666;-69
2023/09/30 07:16:23;;;;;;;6.00;3.87;;;18.00;9.30;;;;;;5035904;28;20533;-69
2023/09/30 07:18:50;;;;;;;7.30;4.57;;;17.90;9.80;;;;;;5053609;28;20892;-70
2023/09/30 07:21:15;;;;;;;4.60;3.67;;;18.10;10.00;;;;;;5052989;28;20226;-72
2023/09/30 07:23:41;;;;;;;6.13;4.43;;;18.20;8.00;;;;;;5052931;28;20444;-69
2023/09/30 07:26:07;;;;;;;9.03;4.10;;;18.40;7.30;;;;;;5053058;28;20179;-69
2023/09/30 07:28:33;;;;;;;10.97;4.77;;;18.30;6.40;;;;;;5052988;28;20210;-69
2023/09/30 07:30:59;;;;;;;6.37;3.87;;;18.30;5.30;;;;;;5035074;28;20202;-70
2023/09/30 07:33:25;;;;;;;9.70;5.07;;;18.30;5.50;;;;;;5052967;28;20415;-69
2023/09/30 07:35:50;;;;;;;5.07;3.80;;;18.30;5.80;;;;;;5051700;28;20175;-70
2023/09/30 07:38:16;;;;;;;6.60;3.93;;;18.30;6.40;;;;;;5052817;28;20182;-71
2023/09/30 07:40:42;;;;;;;9.10;4.47;;;18.30;6.40;;;;;;5052651;28;20236;-69
2023/09/30 07:43:07;;;;;;;7.30;3.90;;;18.30;4.50;;;;;;5052725;28;20183;-69
2023/09/30 07:45:33;;;;;;;4.10;3.33;;;18.60;3.80;;;;;;5052622;28;20189;-69
2023/09/30 07:47:58;;;;;;;6.43;3.97;;;18.80;2.10;;;;;;5052706;28;20209;-69
2023/09/30 07:50:24;;;;;;;6.23;3.70;;;18.90;1.90;;;;;;5052398;28;20202;-69
2023/09/30 07:52:50;;;;;;;5.47;4.07;;;18.70;2.00;;;;;;5034651;28;20441;-69
2023/09/30 07:55:15;;;;;;;12.33;3.40;;;18.80;1.30;;;;;;5052458;28;20228;-69
2023/09/30 07:57:43;;;;;;;8.70;4.77;;;18.90;1.00;;;;;;5052521;28;20451;-69
2023/09/30 08:00:14;;;;;;;8.23;4.30;;;18.90;1.00;;;;;;5052328;28;20267;-69
2023/09/30 08:02:43;;;;;;;4.87;3.50;;;19.00;1.40;;;;;;5052469;28;20516;-69
2023/09/30 08:05:09;;;;;;;7.47;4.57;;;18.90;1.00;;;;;;5035746;28;20828;-70
2023/09/30 08:07:35;;;;;;;7.90;4.70;;;19.10;1.00;;;;;;5052315;28;20452;-70
2023/09/30 08:10:05;;;;;;;7.27;3.60;;;19.30;1.00;;;;;;5052037;28;20421;-72
2023/09/30 08:12:30;;;;;;;10.30;4.30;;;19.60;1.00;;;;;;5052232;28;20308;-70
2023/09/30 08:14:56;;;;;;;5.47;3.43;;;19.90;1.00;;;;;;5051865;28;20860;-72
2023/09/30 08:17:21;;;;;;;5.83;4.50;;;20.10;1.00;;;;;;5051993;28;20581;-71
2023/09/30 08:19:47;;;;;;;7.47;4.67;;;19.70;1.00;;;;;;5051966;28;20174;-71
2023/09/30 08:22:14;;;;;;;8.00;3.87;;;19.60;1.00;;;;;;5051915;28;20650;-71
2023/09/30 08:24:39;;;;;;;5.80;3.43;;;19.50;1.00;;;;;;5051758;28;20417;-71
2023/09/30 08:27:05;;;;;;;8.03;4.83;;;19.10;1.00;;;;;;5051792;28;20467;-70
2023/09/30 08:29:35;;;;;;;4.70;3.70;;;19.10;1.00;;;;;;5051901;28;20182;-70
2023/09/30 08:32:02;;;;;;;7.37;4.30;;;19.30;1.00;;;;;;5051727;28;20437;-71
2023/09/30 08:34:28;;;;;;;9.27;4.23;;;19.20;1.00;;;;;;5051563;28;20413;-71
2023/09/30 08:36:54;;;;;;;6.00;4.17;;;19.10;1.00;;;;;;5051745;28;20988;-72
2023/09/30 08:39:19;;;;;;;6.97;3.73;;;19.10;1.00;;;;;;5051819;28;20449;-72
2023/09/30 08:41:45;;;;;;;5.70;4.10;;;19.10;1.00;;;;;;5051601;28;20229;-71
2023/09/30 08:44:12;;;;;;;5.63;3.27;;;19.20;1.00;;;;;;5051500;28;20220;-71
2023/09/30 08:46:40;;;;;;;8.03;3.93;;;19.00;1.00;;;;;;5051240;28;20960;-71
2023/09/30 08:49:06;;;;;;;7.10;4.03;;;19.00;1.00;;;;;;5051705;28;20797;-71
2023/09/30 08:51:32;;;;;;;6.00;3.97;;;18.90;1.00;;;;;;5051508;28;20437;-72
2023/09/30 08:53:59;;;;;;;9.33;3.67;;;19.10;1.00;;;;;;5051362;28;20425;-71
2023/09/30 08:56:28;;;;;;;6.27;4.00;;;19.10;1.00;;;;;;5033925;28;20502;-71
2023/09/30 08:58:58;;;;;;;7.90;4.20;;;19.30;1.00;;;;;;5051603;28;20925;-72
2023/09/30 09:01:25;;;;;;;6.33;3.80;;;19.30;1.00;;;;;;5051409;28;20455;-70
2023/09/30 09:03:52;;;;;;;8.10;4.60;;;19.60;1.00;;;;;;5051241;28;20479;-72
2023/09/30 09:06:19;;;;;;;5.13;3.23;;;19.80;1.00;;;;;;5051503;28;20465;-72
2023/09/30 09:08:45;;;;;;;7.40;3.90;;;19.90;1.00;;;;;;5051919;28;20912;-71
2023/09/30 09:11:10;;;;;;;8.93;4.63;;;19.70;1.00;;;;;;5051587;28;20502;-72
2023/09/30 09:13:50;;;;;;;7.47;4.60;;;19.80;1.00;;;;;;5051489;28;20179;-72
2023/09/30 09:16:19;;;;;;;7.40;3.87;;;19.60;1.00;;;;;;5051667;28;20202;-71
2023/09/30 09:18:47;;;;;;;6.70;4.17;;;19.40;1.00;;;;;;5051744;28;20440;-70
2023/09/30 09:21:15;;;;;;;5.40;3.67;;;19.50;1.00;;;;;;5033502;28;20444;-70
2023/09/30 09:23:42;;;;;;;5.23;3.70;;;19.80;1.00;;;;;;5051431;28;20413;-72
2023/09/30 09:26:12;;;;;;;7.47;3.87;;;20.20;1.00;;;;;;5033560;28;20425;-71
2023/09/30 09:28:42;;;;;;;5.93;3.60;;;20.40;1.00;;;;;;5033788;28;20475;-72
2023/09/30 09:31:23;;;;;;;5.77;4.70;;;20.70;1.00;;;;;;5051327;28;20440;-70
2023/09/30 09:33:50;;;;;;;7.30;3.93;;;20.70;1.00;;;;;;5051170;28;20417;-72
2023/09/30 09:36:16;;;;;;;5.53;4.50;;;20.30;1.00;;;;;;5033556;28;20422;-74
2023/09/30 09:38:54;;;;;;;5.60;4.50;;;20.90;1.00;;;;;;5051362;28;20851;-71
2023/09/30 09:41:20;;;;;;;6.57;4.10;;;21.10;1.00;;;;;;5051359;28;20441;-71
2023/09/30 09:43:50;;;;;;;7.10;4.10;;;20.80;1.00;;;;;;5033378;28;20477;-71
2023/09/30 09:46:17;;;;;;;5.73;4.27;;;20.70;1.00;;;;;;5051350;28;20511;-71
2023/09/30 09:48:46;;;;;;;5.13;4.60;;;20.70;1.00;;;;;;5051210;28;20457;-76
2023/09/30 09:51:13;;;;;;;5.33;3.90;;;20.60;1.00;;;;;;5050988;28;20495;-71
2023/09/30 09:53:40;;;;;;;7.60;3.77;;;20.80;1.00;;;;;;5033036;28;20500;-71
2023/09/30 09:56:10;;;;;;;9.03;4.30;;;20.90;1.00;;;;;;5051296;28;20470;-72
2023/09/30 09:58:38;;;;;;;5.83;4.47;;;21.00;1.00;;;;;;5033521;28;20432;-71
2023/09/30 10:01:05;;;;;;;6.33;5.00;;;21.10;1.00;;;;;;5054869;28;20443;-75
2023/09/30 10:03:32;;;;;;;7.90;5.20;;;21.40;1.00;;;;;;5054528;28;20420;-70
2023/09/30 10:05:59;;;;;;;8.03;4.50;;;21.30;1.00;;;;;;5054904;28;20810;-75
2023/09/30 10:08:42;;;;;;;8.40;4.93;;;21.20;1.00;;;;;;5054737;28;20460;-70
2023/09/30 10:11:09;;;;;;;6.90;4.87;;;21.30;1.00;;;;;;5054435;28;20456;-71
2023/09/30 10:14:00;;;;;;;7.80;4.90;;;21.30;1.00;;;;;;5054400;28;20413;-69
2023/09/30 10:16:35;;;;;;;9.50;5.40;;;21.20;1.00;;;;;;5054611;28;20408;-71
2023/09/30 10:19:11;;;;;;;12.03;5.80;;;21.10;1.00;;;;;;5054364;28;20745;-72
2023/09/30 10:21:37;;;;;;;6.40;4.23;;;21.00;1.00;;;;;;5054483;28;20489;-74
2023/09/30 10:24:25;;;;;;;7.87;5.13;;;21.10;1.00;;;;;;5036214;28;20508;-70
2023/09/30 10:27:21;;;;;;;7.60;5.90;;;21.20;1.00;;;;;;5054265;28;20541;-70
2023/09/30 10:29:49;;;;;;;7.30;4.73;;;21.40;1.00;;;;;;5054330;28;20412;-71
2023/09/30 10:32:16;;;;;;;10.97;6.47;;;21.30;1.00;;;;;;5036280;28;20420;-72
2023/09/30 10:34:49;;;;;;;8.50;6.00;;;21.20;1.00;;;;;;5053791;28;20409;-71
2023/09/30 10:37:24;;;;;;;8.83;5.10;;;21.40;1.00;;;;;;5053994;28;20474;-71
2023/09/30 10:39:55;;;;;;;8.43;5.47;;;21.30;1.00;;;;;;5053777;28;20420;-72
2023/09/30 10:42:45;;;;;;;7.97;5.30;;;21.50;1.00;;;;;;5053888;28;20424;-73
2023/09/30 10:45:46;;;;;;;6.30;4.60;;;21.40;1.00;;;;;;5047088;28;20738;-72
2023/09/30 10:48:31;;;;;;;6.37;4.83;;;21.70;1.00;;;;;;5053872;28;20468;-72
2023/09/30 10:51:20;;;;;;;6.50;5.10;;;21.50;1.00;;;;;;5053744;28;20962;-72
2023/09/30 10:53:51;;;;;;;10.20;5.70;;;21.30;1.00;;;;;;5053674;28;20410;-71
2023/09/30 10:56:20;;;;;;;9.30;5.67;;;21.20;1.00;;;;;;5053940;28;20833;-71
2023/09/30 10:58:53;;;;;;;9.90;5.87;;;21.30;1.00;;;;;;5053833;28;20508;-72
2023/09/30 11:01:21;;;;;;;7.90;6.30;;;21.30;1.00;;;;;;5035977;28;21058;-72
2023/09/30 11:03:51;;;;;;;11.03;6.20;;;21.30;1.00;;;;;;5053389;28;20417;-72
2023/09/30 11:06:20;;;;;;;7.63;5.77;;;21.50;1.00;;;;;;5053606;28;20471;-73
2023/09/30 11:08:54;;;;;;;8.33;5.63;;;21.30;1.00;;;;;;5053658;28;20464;-71
2023/09/30 11:11:35;;;;;;;9.00;7.27;;;21.40;1.00;;;;;;5053218;28;20448;-71
2023/09/30 11:14:00;;;;;;;10.03;8.20;;;21.40;1.00;;;;;;5053233;28;20459;-72
2023/09/30 11:16:26;;;;;;;8.33;6.10;;;21.70;1.00;;;;;;5035421;28;20773;-70
2023/09/30 11:18:54;;;;;;;8.17;5.97;;;21.90;1.00;;;;;;5053064;28;20258;-71
2023/09/30 11:21:22;;;;;;;8.37;5.43;;;21.90;1.00;;;;;;5053112;28;20252;-71
2023/09/30 11:23:47;;;;;;;6.93;5.97;;;21.80;1.00;;;;;;5052929;28;20413;-72
2023/09/30 11:26:14;;;;;;;9.17;7.13;;;21.60;1.00;;;;;;5052911;28;20411;-72
2023/09/30 11:28:44;;;;;;;9.13;5.90;;;21.70;1.00;;;;;;5053083;28;20263;-74
2023/09/30 11:31:13;;;;;;;11.67;7.33;;;21.80;1.00;;;;;;5052835;28;20468;-71
2023/09/30 11:33:56;;;;;;;10.80;7.07;;;21.70;1.00;;;;;;5052958;28;20417;-72
2023/09/30 11:36:23;;;;;;;16.90;8.20;;;21.50;1.00;;;;;;5052990;28;20416;-70
2023/09/30 11:38:50;;;;;;;10.27;6.90;;;21.30;1.00;;;;;;5053087;28;20413;-72
2023/09/30 11:41:18;;;;;;;11.27;7.03;;;21.60;1.00;;;;;;5052746;28;20804;-72
2023/09/30 11:44:10;;;;;;;12.03;7.50;;;21.90;1.00;;;;;;5052678;28;20483;-71
2023/09/30 11:47:05;;;;;;;9.50;6.97;;;22.10;1.00;;;;;;5035006;28;20421;-72
2023/09/30 11:49:38;;;;;;;11.10;6.53;;;21.90;1.00;;;;;;5053098;28;20480;-71
2023/09/30 11:52:09;;;;;;;15.90;8.90;;;22.10;1.00;;;;;;5052820;28;20635;-72
2023/09/30 11:54:39;;;;;;;12.43;8.07;;;22.10;1.00;;;;;;5052486;28;20409;-71
2023/09/30 11:57:04;;;;;;;9.17;7.20;;;22.10;1.00;;;;;;5052623;28;20409;-72
2023/09/30 11:59:31;;;;;;;13.27;8.17;;;22.40;1.00;;;;;;5052575;28;20551;-72
2023/09/30 12:01:58;;;;;;;15.63;8.93;;;22.70;1.00;;;;;;5052460;28;20213;-71
2023/09/30 12:04:24;;;;;;;9.60;7.27;;;23.30;1.00;;;;;;5034342;28;20421;-72
2023/09/30 12:06:49;;;;;;;11.80;8.20;;;23.30;1.00;;;;;;5052144;28;20459;-71
2023/09/30 12:09:21;;;;;;;8.57;7.77;;;23.10;1.00;;;;;;5052366;28;20514;-71
2023/09/30 12:11:47;;;;;;;11.53;8.80;;;23.40;1.00;;;;;;5052123;28;20211;-71
2023/09/30 12:14:13;;;;;;;9.50;6.77;;;23.20;1.00;;;;;;5051968;28;20416;-71
2023/09/30 12:16:39;;;;;;;14.67;9.27;;;23.60;1.00;;;;;;5052076;28;20908;-71
2023/09/30 12:19:06;;;;;;;8.07;7.17;;;23.60;1.00;;;;;;5052086;28;20668;-71
2023/09/30 12:21:32;;;;;;;11.90;8.80;;;23.60;1.00;;;;;;5051672;28;20436;-71
2023/09/30 12:23:58;;;;;;;9.23;8.23;;;23.50;1.00;;;;;;5051820;28;20908;-71
2023/09/30 12:26:24;;;;;;;11.53;8.73;;;23.60;1.00;;;;;;5051960;28;20409;-71
2023/09/30 12:28:49;;;;;;;8.37;7.57;;;23.60;1.00;;;;;;5051886;28;20420;-72
2023/09/30 12:31:15;;;;;;;8.60;7.70;;;23.20;1.00;;;;;;5033892;28;20433;-71
2023/09/30 12:33:41;;;;;;;9.57;7.57;;;23.20;1.00;;;;;;5051540;28;20170;-71
2023/09/30 12:36:07;;;;;;;9.63;8.63;;;23.10;1.00;;;;;;5051803;28;20409;-71
2023/09/30 12:38:33;;;;;;;8.43;6.57;;;23.40;1.00;;;;;;5051806;28;20266;-71
2023/09/30 12:41:00;;;;;;;8.43;6.40;;;23.50;1.00;;;;;;5051667;28;20465;-72
2023/09/30 12:43:25;;;;;;;10.50;7.60;;;23.90;1.00;;;;;;5033751;28;20194;-72
2023/09/30 12:45:51;;;;;;;7.23;6.50;;;24.20;1.00;;;;;;5051586;28;20413;-70
2023/09/30 12:48:17;;;;;;;12.77;7.47;;;24.40;1.00;;;;;;5051739;28;20263;-71
2023/09/30 12:50:42;;;;;;;10.17;8.20;;;24.20;1.00;;;;;;5051555;28;20199;-72